Skip Navigation LinksHome page > Weather > Current weather Skip Navigation Links

Current Weather

Indira Gandhi Intl Apt, New Delhi, India

For information only: do not use for flight planning or navigation.
Latest weather
Observation time Tuesday, December 1, 2020 7:30 PM IST
Local time Tuesday, December 1, 2020 7:51 PM IST
Flight conditions Instrument Meteorological Conditions
Winds
Wind speed calm
Visibility 1.4 mi.
Present weather haze
Sky condition
Ceiling unlimited
Temperature 63°F
Dewpoint 50°F
Altimeter 30.03 in.Hg
Derived measurements
Relative humidity 63%
Density altitude 1048 ft.
Remarks
No significant changes expected in the next two hours.
METAR VIDP 011400Z 00000KT 2200 HZ NSC 17/10 Q1017 NOSIG

Settings

Location code

InnerDrive.Weather 4.0.6770.0 Release CLR 4.0.30319.42000
Copyright ©2018 Inner Drive Technology. All rights reserved. Portions Copyright ©1986-2018 David Braverman.

Find weather

Site navigation


Skip Navigation Links

Place info

Page info

PayPal - The safer, easier way to pay online!

Return home.

Copyright ©2020 Inner Drive Technology. Purveyors of fine, hand-crafted computer software. Page printed 2020-12-01T14:21:46 UTC.